Time;durP1;ratioP1;P1;durP2;ratioP2;P2;SDS_P1;SDS_P2;PMS_P1;PMS_P2;Temp;Humidity;BMP_temperature;BMP_pressure;BME280_temperature;BME280_humidity;BME280_pressure;Samples;Min_cycle;Max_cycle;Signal;HPM_P1;HPM_P2
2021/01/20 00:01:58;;;;;;;16.53;10.87;;;7.50;91.40;;;;;;4404747;32;20203;-65
2021/01/20 00:04:25;;;;;;;21.03;12.40;;;7.40;91.60;;;;;;4405132;32;20163;-67
2021/01/20 00:06:51;;;;;;;16.83;11.40;;;7.20;92.10;;;;;;4404733;32;20190;-66
2021/01/20 00:09:18;;;;;;;16.83;11.70;;;7.20;92.20;;;;;;4404346;32;20180;-66
2021/01/20 00:11:44;;;;;;;18.30;11.93;;;7.20;92.40;;;;;;4404983;32;20151;-66
2021/01/20 00:14:13;;;;;;;19.33;11.80;;;7.20;92.40;;;;;;4392016;32;20183;-66
2021/01/20 00:16:41;;;;;;;15.97;11.83;;;7.20;92.40;;;;;;4389666;32;20179;-67
2021/01/20 00:19:08;;;;;;;17.73;12.17;;;7.10;92.40;;;;;;4391482;32;20607;-67
2021/01/20 00:21:35;;;;;;;18.43;11.80;;;7.20;92.40;;;;;;4404736;32;20607;-65
2021/01/20 00:24:02;;;;;;;22.47;12.17;;;7.20;92.20;;;;;;4404716;32;20167;-66
2021/01/20 00:26:29;;;;;;;16.40;12.47;;;7.10;92.10;;;;;;4404829;32;20611;-66
2021/01/20 00:28:55;;;;;;;19.93;13.07;;;7.10;92.20;;;;;;4395947;32;20179;-66
2021/01/20 00:31:22;;;;;;;19.93;12.63;;;7.10;91.90;;;;;;4402609;32;20237;-67
2021/01/20 00:33:48;;;;;;;19.97;12.47;;;7.10;92.00;;;;;;4402381;32;20516;-67
2021/01/20 00:36:14;;;;;;;18.40;12.07;;;7.10;92.10;;;;;;4404778;32;20224;-67
2021/01/20 00:38:41;;;;;;;22.37;12.93;;;7.10;91.90;;;;;;4403955;32;20311;-67
2021/01/20 00:41:09;;;;;;;18.47;11.77;;;7.10;91.90;;;;;;4405202;32;20217;-67
2021/01/20 00:43:36;;;;;;;17.90;12.80;;;7.10;91.80;;;;;;4405878;32;20166;-66
2021/01/20 00:46:02;;;;;;;19.53;12.50;;;7.10;91.90;;;;;;4399031;32;20537;-66
2021/01/20 00:48:28;;;;;;;21.37;14.13;;;7.10;91.80;;;;;;4404145;32;20607;-66
2021/01/20 00:50:55;;;;;;;19.70;11.13;;;7.10;91.60;;;;;;4404861;32;20627;-67
2021/01/20 00:53:22;;;;;;;17.37;12.27;;;7.20;91.50;;;;;;4403984;32;20175;-66
2021/01/20 00:55:49;;;;;;;17.33;12.70;;;7.10;91.60;;;;;;4397227;32;20495;-66
2021/01/20 00:58:16;;;;;;;18.50;11.80;;;7.10;91.60;;;;;;4399238;32;20182;-65
2021/01/20 01:00:43;;;;;;;17.30;12.23;;;7.10;91.60;;;;;;4403222;32;20263;-67
2021/01/20 01:03:10;;;;;;;18.77;11.50;;;7.10;91.40;;;;;;4400227;32;20487;-66
2021/01/20 01:05:37;;;;;;;17.90;12.20;;;7.10;91.50;;;;;;4397525;32;20152;-67
2021/01/20 01:08:04;;;;;;;20.07;12.47;;;7.10;91.30;;;;;;4394993;32;20167;-67
2021/01/20 01:10:30;;;;;;;20.90;11.67;;;7.10;91.40;;;;;;4403759;32;20163;-66
2021/01/20 01:12:57;;;;;;;19.93;11.97;;;7.10;91.20;;;;;;4400646;32;20171;-66
2021/01/20 01:15:24;;;;;;;20.13;11.53;;;7.10;91.20;;;;;;4399599;32;20201;-67
2021/01/20 01:17:50;;;;;;;16.23;11.27;;;7.10;91.30;;;;;;4403830;32;20292;-65
2021/01/20 01:20:17;;;;;;;14.50;11.10;;;7.10;91.10;;;;;;4403990;32;20202;-66
2021/01/20 01:22:43;;;;;;;17.00;11.37;;;7.20;91.10;;;;;;4403521;32;20182;-66
2021/01/20 01:25:11;;;;;;;20.90;11.40;;;7.20;91.10;;;;;;4399892;32;20171;-65
2021/01/20 01:27:37;;;;;;;19.77;11.93;;;7.20;91.20;;;;;;4403091;32;20273;-67
2021/01/20 01:30:05;;;;;;;18.60;11.13;;;7.20;91.10;;;;;;4403680;32;20202;-65
2021/01/20 01:32:32;;;;;;;18.17;11.20;;;7.20;91.00;;;;;;4402160;32;20592;-66
2021/01/20 01:34:58;;;;;;;17.07;12.00;;;7.20;91.20;;;;;;4395526;32;20246;-68
2021/01/20 01:37:25;;;;;;;18.03;11.77;;;7.20;91.10;;;;;;4403186;32;20175;-65
2021/01/20 01:39:51;;;;;;;21.70;11.47;;;7.20;91.20;;;;;;4404296;32;20258;-65
2021/01/20 01:42:25;;;;;;;20.10;11.30;;;7.30;91.30;;;;;;4403387;32;20232;-66
2021/01/20 01:44:52;;;;;;;17.63;12.10;;;7.20;91.30;;;;;;4406089;32;20198;-66
2021/01/20 01:47:19;;;;;;;22.57;12.13;;;7.20;91.30;;;;;;4397947;32;20583;-65
2021/01/20 01:49:46;;;;;;;18.93;12.87;;;7.20;91.30;;;;;;4406856;32;20211;-66
2021/01/20 01:52:13;;;;;;;20.67;12.87;;;7.20;91.30;;;;;;4406326;32;20219;-65
2021/01/20 01:54:40;;;;;;;18.53;11.87;;;7.30;91.50;;;;;;4396151;32;20180;-67
2021/01/20 01:57:06;;;;;;;17.17;11.87;;;7.20;91.20;;;;;;4397375;32;20161;-68
2021/01/20 01:59:33;;;;;;;23.43;13.20;;;7.20;91.40;;;;;;4405096;32;20194;-65
2021/01/20 02:01:59;;;;;;;23.67;13.23;;;7.30;91.60;;;;;;4396275;32;20194;-67
2021/01/20 02:04:26;;;;;;;21.67;12.67;;;7.20;91.70;;;;;;4405398;32;20608;-67
2021/01/20 02:06:55;;;;;;;19.47;12.13;;;7.10;91.60;;;;;;4403536;32;20232;-67
2021/01/20 02:09:22;;;;;;;22.00;13.57;;;7.10;91.70;;;;;;4405817;32;20187;-67
2021/01/20 02:12:02;;;;;;;24.87;12.47;;;7.10;91.80;;;;;;4406365;32;20159;-67
2021/01/20 02:14:35;;;;;;;20.30;13.67;;;7.10;92.00;;;;;;4405553;32;20183;-65
2021/01/20 02:17:10;;;;;;;20.60;13.53;;;7.10;92.00;;;;;;4400710;32;20207;-66
2021/01/20 02:20:04;;;;;;;22.80;13.80;;;7.00;92.10;;;;;;4405365;32;20569;-66
2021/01/20 02:22:35;;;;;;;22.63;14.20;;;7.00;92.20;;;;;;4383501;32;20183;-66
2021/01/20 02:25:14;;;;;;;21.27;13.37;;;7.00;92.40;;;;;;4404626;32;20192;-67
2021/01/20 02:27:59;;;;;;;21.67;12.90;;;6.90;92.40;;;;;;4405995;32;20556;-66
2021/01/20 02:30:28;;;;;;;20.53;13.97;;;7.00;92.40;;;;;;4405394;32;20172;-66
2021/01/20 02:32:56;;;;;;;22.77;13.60;;;7.00;92.40;;;;;;4406253;32;20167;-67
2021/01/20 02:35:24;;;;;;;20.30;13.27;;;7.00;92.30;;;;;;4401680;32;20176;-67
2021/01/20 02:37:52;;;;;;;19.37;13.90;;;7.00;92.50;;;;;;4404261;32;20159;-66
2021/01/20 02:40:19;;;;;;;22.53;13.87;;;7.00;92.60;;;;;;4406805;32;20219;-66
2021/01/20 02:42:47;;;;;;;18.70;13.77;;;7.00;92.40;;;;;;4392889;32;20695;-66
2021/01/20 02:45:14;;;;;;;24.03;15.40;;;7.00;92.60;;;;;;4405553;32;20195;-66
2021/01/20 02:47:42;;;;;;;23.70;14.30;;;7.00;92.80;;;;;;4393481;32;20243;-66
2021/01/20 02:50:12;;;;;;;22.60;14.17;;;7.00;92.70;;;;;;4405614;32;20179;-67
2021/01/20 02:52:47;;;;;;;23.57;15.23;;;7.00;93.00;;;;;;4405202;32;20170;-67
2021/01/20 02:55:15;;;;;;;23.90;15.37;;;6.90;93.20;;;;;;4400493;32;20151;-65
2021/01/20 02:57:44;;;;;;;19.67;13.30;;;6.90;93.30;;;;;;4405076;32;20168;-67
2021/01/20 03:00:12;;;;;;;24.27;14.30;;;6.90;93.40;;;;;;4406307;32;20495;-66
2021/01/20 03:02:39;;;;;;;24.30;14.80;;;6.90;93.50;;;;;;4404933;32;20210;-64
2021/01/20 03:05:10;;;;;;;21.90;13.93;;;6.90;93.50;;;;;;4397308;32;20180;-65
2021/01/20 03:07:38;;;;;;;26.77;15.30;;;6.90;93.70;;;;;;4403657;32;20490;-65
2021/01/20 03:10:08;;;;;;;20.60;14.07;;;7.00;93.60;;;;;;4406560;32;20156;-65
2021/01/20 03:12:34;;;;;;;25.77;15.03;;;7.00;93.40;;;;;;4405630;32;20186;-65
2021/01/20 03:15:02;;;;;;;23.63;16.37;;;7.00;93.50;;;;;;4406875;32;20689;-66
2021/01/20 03:17:31;;;;;;;24.43;14.97;;;7.00;93.50;;;;;;4404874;32;20262;-66
2021/01/20 03:19:57;;;;;;;22.47;14.27;;;7.00;93.50;;;;;;4403603;32;20186;-66
2021/01/20 03:22:27;;;;;;;21.50;13.33;;;7.00;93.40;;;;;;4407035;32;20544;-66
2021/01/20 03:24:53;;;;;;;18.77;14.03;;;7.00;93.50;;;;;;4396907;32;20160;-66
2021/01/20 03:27:20;;;;;;;20.23;13.80;;;7.00;93.30;;;;;;4405373;32;20212;-65
2021/01/20 03:29:46;;;;;;;21.13;14.03;;;7.10;93.20;;;;;;4404081;32;20215;-66
2021/01/20 03:32:12;;;;;;;20.63;13.87;;;7.00;93.20;;;;;;4398186;32;20164;-64
2021/01/20 03:34:39;;;;;;;22.43;14.23;;;7.00;93.20;;;;;;4398413;32;20650;-66
2021/01/20 03:37:06;;;;;;;20.70;12.93;;;7.00;93.20;;;;;;4405275;32;20152;-66
2021/01/20 03:39:38;;;;;;;25.67;14.23;;;7.00;93.10;;;;;;4405769;32;20216;-65
2021/01/20 03:42:07;;;;;;;18.70;13.20;;;7.00;93.10;;;;;;4405182;32;20241;-66
2021/01/20 03:44:35;;;;;;;18.23;12.17;;;7.00;93.00;;;;;;4405909;32;20581;-65
2021/01/20 03:47:01;;;;;;;22.07;11.57;;;7.00;93.00;;;;;;4399186;32;20191;-65
2021/01/20 03:49:27;;;;;;;17.30;11.83;;;7.00;93.00;;;;;;4403756;32;20198;-66
2021/01/20 03:51:55;;;;;;;19.97;11.40;;;7.10;93.00;;;;;;4404805;32;20155;-65
2021/01/20 03:54:21;;;;;;;18.53;11.93;;;7.10;92.90;;;;;;4404365;32;20250;-64
2021/01/20 03:56:50;;;;;;;20.00;12.57;;;7.10;92.80;;;;;;4401427;32;20171;-65
2021/01/20 03:59:16;;;;;;;21.50;13.40;;;7.10;92.80;;;;;;4404013;32;20167;-65
2021/01/20 04:01:42;;;;;;;20.03;11.13;;;7.10;92.80;;;;;;4405598;32;20250;-65
2021/01/20 04:04:09;;;;;;;16.30;11.53;;;7.10;92.80;;;;;;4405156;32;20605;-64
2021/01/20 04:06:35;;;;;;;18.17;11.20;;;7.10;92.80;;;;;;4398926;32;20219;-65
2021/01/20 04:09:02;;;;;;;19.33;10.70;;;7.20;92.70;;;;;;4402163;32;20214;-65
2021/01/20 04:11:28;;;;;;;20.67;11.50;;;7.20;92.60;;;;;;4403703;32;20163;-66
2021/01/20 04:13:57;;;;;;;19.60;11.67;;;7.30;92.60;;;;;;4400340;32;20209;-65
2021/01/20 04:16:23;;;;;;;17.00;10.47;;;7.30;92.50;;;;;;4397989;32;20334;-65
2021/01/20 04:18:51;;;;;;;15.90;11.50;;;7.30;92.40;;;;;;4405942;32;20175;-65
2021/01/20 04:21:17;;;;;;;15.87;10.60;;;7.30;92.20;;;;;;4393519;32;20525;-66
2021/01/20 04:23:43;;;;;;;15.87;10.90;;;7.20;92.20;;;;;;4404081;32;20160;-66
2021/01/20 04:26:10;;;;;;;16.87;10.13;;;7.20;92.20;;;;;;4403892;32;20164;-66
2021/01/20 04:28:37;;;;;;;15.70;9.90;;;7.20;92.20;;;;;;4403482;32;20234;-66
2021/01/20 04:31:05;;;;;;;13.97;10.07;;;7.20;92.20;;;;;;4404083;32;20235;-66
2021/01/20 04:33:32;;;;;;;13.97;10.17;;;7.20;92.30;;;;;;4403348;32;20215;-67
2021/01/20 04:35:59;;;;;;;16.23;9.90;;;7.30;92.20;;;;;;4403326;32;20306;-66
2021/01/20 04:38:25;;;;;;;14.17;9.87;;;7.30;92.20;;;;;;4403862;32;20243;-66
2021/01/20 04:40:53;;;;;;;15.33;9.73;;;7.20;92.00;;;;;;4403331;32;20275;-65
2021/01/20 04:43:20;;;;;;;15.07;10.13;;;7.30;92.10;;;;;;4405306;32;20156;-65
2021/01/20 04:45:46;;;;;;;17.17;11.40;;;7.30;92.10;;;;;;4405246;32;20537;-65
2021/01/20 04:48:15;;;;;;;20.20;11.57;;;7.30;91.90;;;;;;4394679;32;20580;-67
2021/01/20 04:50:43;;;;;;;14.73;9.83;;;7.30;92.00;;;;;;4395530;32;20221;-65
2021/01/20 04:53:10;;;;;;;16.60;10.53;;;7.30;92.00;;;;;;4400973;32;20539;-65
2021/01/20 04:55:40;;;;;;;16.00;10.00;;;7.40;92.00;;;;;;4405245;32;20159;-67
2021/01/20 04:58:09;;;;;;;21.23;10.43;;;7.40;92.00;;;;;;4403271;32;20156;-65
2021/01/20 05:00:37;;;;;;;14.27;9.53;;;7.40;91.90;;;;;;4404620;32;20552;-66
2021/01/20 05:03:05;;;;;;;12.83;9.50;;;7.40;92.00;;;;;;4390793;32;20626;-66
2021/01/20 05:05:35;;;;;;;19.13;10.20;;;7.40;91.90;;;;;;4399195;32;20195;-65
2021/01/20 05:08:02;;;;;;;12.73;8.97;;;7.40;91.70;;;;;;4404668;32;20247;-66
2021/01/20 05:10:28;;;;;;;15.60;9.63;;;7.40;91.70;;;;;;4403304;32;20206;-66
2021/01/20 05:12:55;;;;;;;15.13;9.73;;;7.50;91.60;;;;;;4405317;32;20547;-67
2021/01/20 05:15:30;;;;;;;11.30;8.57;;;7.50;91.70;;;;;;4404287;32;20196;-66
2021/01/20 05:17:58;;;;;;;13.37;9.50;;;7.50;91.60;;;;;;4402065;32;20233;-66
2021/01/20 05:20:33;;;;;;;13.70;9.17;;;7.50;91.40;;;;;;4404505;32;20179;-66
2021/01/20 05:23:01;;;;;;;15.93;8.63;;;7.50;91.50;;;;;;4404829;32;20552;-65
2021/01/20 05:25:29;;;;;;;13.50;8.50;;;7.50;91.60;;;;;;4403235;32;20164;-66
2021/01/20 05:27:55;;;;;;;14.40;9.03;;;7.60;91.50;;;;;;4400792;32;20156;-65
2021/01/20 05:30:23;;;;;;;10.80;7.70;;;7.60;91.30;;;;;;4401970;32;20227;-65
2021/01/20 05:32:56;;;;;;;13.37;8.60;;;7.60;91.30;;;;;;4398527;32;20214;-66
2021/01/20 05:35:23;;;;;;;11.53;8.27;;;7.70;91.40;;;;;;4403833;32;20193;-66
2021/01/20 05:37:58;;;;;;;10.57;7.97;;;7.70;91.50;;;;;;4403593;32;20216;-66
2021/01/20 05:40:24;;;;;;;14.07;9.03;;;7.70;91.20;;;;;;4403446;32;20204;-66
2021/01/20 05:42:52;;;;;;;11.10;7.37;;;7.70;91.10;;;;;;4404262;32;20183;-66
2021/01/20 05:45:28;;;;;;;10.77;7.73;;;7.70;91.00;;;;;;4394094;32;20210;-67
2021/01/20 05:48:04;;;;;;;13.80;8.23;;;7.70;91.00;;;;;;4398411;32;20199;-66
2021/01/20 05:50:30;;;;;;;14.57;7.63;;;7.70;91.20;;;;;;4396695;32;20804;-66
2021/01/20 05:53:05;;;;;;;12.07;7.70;;;7.70;91.00;;;;;;4403476;32;20207;-67
2021/01/20 05:55:32;;;;;;;13.63;7.60;;;7.70;90.90;;;;;;4393891;32;20202;-66
2021/01/20 05:57:58;;;;;;;12.17;7.40;;;7.80;90.70;;;;;;4398304;32;20199;-66
2021/01/20 06:00:25;;;;;;;9.70;6.97;;;7.80;90.70;;;;;;4403054;32;20203;-65
2021/01/20 06:02:54;;;;;;;10.53;7.23;;;7.80;90.60;;;;;;4400450;32;20278;-66
2021/01/20 06:05:20;;;;;;;12.27;7.20;;;7.90;90.60;;;;;;4393989;32;20164;-66
2021/01/20 06:07:49;;;;;;;11.40;7.27;;;7.90;90.60;;;;;;4398536;32;20173;-67
2021/01/20 06:10:17;;;;;;;10.27;6.77;;;7.90;90.40;;;;;;4396714;32;20152;-66
2021/01/20 06:12:43;;;;;;;10.57;7.00;;;7.90;90.30;;;;;;4403899;32;20223;-66
2021/01/20 06:15:10;;;;;;;10.13;6.83;;;7.90;90.10;;;;;;4403751;32;20219;-66
2021/01/20 06:17:40;;;;;;;9.33;6.37;;;7.90;90.00;;;;;;4404005;32;20190;-68
2021/01/20 06:20:08;;;;;;;9.27;6.13;;;7.90;89.90;;;;;;4405081;32;20603;-67
2021/01/20 06:22:40;;;;;;;9.13;5.97;;;7.90;90.10;;;;;;4402749;32;20664;-66
2021/01/20 06:25:11;;;;;;;11.43;6.23;;;7.90;89.80;;;;;;4401858;32;20218;-66
2021/01/20 06:27:43;;;;;;;10.83;5.67;;;8.00;90.00;;;;;;4400963;32;20220;-66
2021/01/20 06:30:14;;;;;;;8.73;5.67;;;8.00;90.20;;;;;;4403948;32;20212;-67
2021/01/20 06:32:44;;;;;;;9.67;6.50;;;8.00;90.00;;;;;;4405506;32;20273;-67
2021/01/20 06:35:11;;;;;;;7.67;5.73;;;8.00;89.80;;;;;;4405502;32;20186;-66
2021/01/20 06:37:41;;;;;;;9.87;5.80;;;8.10;89.60;;;;;;4402520;32;20164;-67
2021/01/20 06:40:48;;;;;;;7.80;4.83;;;8.10;89.80;;;;;;4399990;32;20207;-66
2021/01/20 06:43:41;;;;;;;8.20;6.20;;;8.00;89.40;;;;;;4403312;32;20251;-66
2021/01/20 06:46:20;;;;;;;7.67;5.40;;;8.00;89.60;;;;;;4400913;32;20523;-67
2021/01/20 06:49:11;;;;;;;8.70;5.43;;;8.10;89.80;;;;;;4401468;32;20316;-66
2021/01/20 06:51:43;;;;;;;6.60;4.90;;;8.10;89.30;;;;;;4335617;33;20529;-66
2021/01/20 06:54:14;;;;;;;9.37;5.33;;;8.20;89.70;;;;;;4323452;33;20248;-66
2021/01/20 06:56:43;;;;;;;6.63;5.03;;;8.10;89.60;;;;;;4345521;32;20188;-66
2021/01/20 06:59:27;;;;;;;8.97;5.10;;;8.20;89.50;;;;;;4343262;33;20251;-67
2021/01/20 07:02:10;;;;;;;6.17;4.83;;;8.20;89.20;;;;;;4343637;32;20237;-67
2021/01/20 07:05:04;;;;;;;8.40;5.47;;;8.20;89.30;;;;;;4343093;32;20211;-66
2021/01/20 07:07:53;;;;;;;8.27;5.33;;;8.20;89.60;;;;;;4345310;33;20831;-66
2021/01/20 07:10:24;;;;;;;7.43;5.23;;;8.20;89.20;;;;;;4348220;33;20899;-66
2021/01/20 07:13:21;;;;;;;8.97;4.93;;;8.20;89.70;;;;;;4359650;32;20228;-67
2021/01/20 07:15:52;;;;;;;9.83;4.23;;;8.20;89.30;;;;;;4350929;33;20169;-66
2021/01/20 07:18:20;;;;;;;6.00;4.10;;;8.20;89.30;;;;;;4343006;33;20260;-67
2021/01/20 07:20:46;;;;;;;9.17;4.77;;;8.20;89.40;;;;;;4335999;33;20231;-67
2021/01/20 07:23:13;;;;;;;8.37;5.03;;;8.30;89.40;;;;;;4334912;33;20213;-68
2021/01/20 07:25:39;;;;;;;5.93;4.27;;;8.30;89.50;;;;;;4334869;33;20295;-67
2021/01/20 07:28:07;;;;;;;8.37;5.13;;;8.30;89.50;;;;;;4362499;32;20233;-69
2021/01/20 07:30:33;;;;;;;6.83;4.93;;;8.30;89.60;;;;;;4392398;32;20510;-67
2021/01/20 07:33:02;;;;;;;7.97;4.47;;;8.30;89.80;;;;;;4395392;32;20282;-67
2021/01/20 07:35:29;;;;;;;6.07;4.60;;;8.30;90.00;;;;;;4393621;32;20155;-67
2021/01/20 07:38:03;;;;;;;6.33;4.87;;;8.30;89.80;;;;;;4392933;32;20667;-68
2021/01/20 07:40:31;;;;;;;7.30;4.80;;;8.30;90.00;;;;;;4395684;32;20156;-70
2021/01/20 07:42:58;;;;;;;8.40;5.13;;;8.30;89.90;;;;;;4396999;32;20160;-70
2021/01/20 07:45:36;;;;;;;7.07;4.73;;;8.40;90.00;;;;;;4393258;32;20604;-68
2021/01/20 07:48:04;;;;;;;9.07;4.77;;;8.40;89.80;;;;;;4394324;32;20728;-67
2021/01/20 07:50:39;;;;;;;6.43;4.87;;;8.40;90.10;;;;;;4394289;32;20260;-68
2021/01/20 07:53:06;;;;;;;10.20;5.20;;;8.40;90.00;;;;;;4390847;32;20256;-69
2021/01/20 07:55:33;;;;;;;9.57;5.20;;;8.40;90.10;;;;;;4392934;32;20174;-69
2021/01/20 07:58:00;;;;;;;7.33;4.63;;;8.40;90.10;;;;;;4392130;32;20203;-67
2021/01/20 08:00:27;;;;;;;6.27;4.23;;;8.40;90.10;;;;;;4391921;32;20220;-66
2021/01/20 08:02:53;;;;;;;9.30;4.63;;;8.40;90.10;;;;;;4391814;32;20632;-69
2021/01/20 08:05:21;;;;;;;6.63;4.43;;;8.40;90.20;;;;;;4393241;32;20495;-66
2021/01/20 08:07:47;;;;;;;6.47;5.30;;;8.40;90.20;;;;;;4391335;32;20209;-68
2021/01/20 08:10:18;;;;;;;6.60;4.93;;;8.40;90.40;;;;;;4394593;32;20171;-67
2021/01/20 08:12:45;;;;;;;9.10;5.00;;;8.40;90.40;;;;;;4397552;32;20606;-68
2021/01/20 08:15:14;;;;;;;6.63;5.40;;;8.40;90.40;;;;;;4393468;32;20371;-67
2021/01/20 08:17:42;;;;;;;6.90;4.67;;;8.50;90.50;;;;;;4392399;32;20645;-69
2021/01/20 08:20:13;;;;;;;6.90;4.80;;;8.50;90.50;;;;;;4395057;32;20659;-65
2021/01/20 08:22:46;;;;;;;7.60;5.10;;;8.50;90.40;;;;;;4392510;32;20234;-66
2021/01/20 08:25:18;;;;;;;6.87;5.07;;;8.50;90.50;;;;;;4396406;32;20222;-66
2021/01/20 08:27:45;;;;;;;7.57;5.20;;;8.50;90.60;;;;;;4395366;32;20174;-65
2021/01/20 08:30:12;;;;;;;6.73;4.60;;;8.50;90.80;;;;;;4392984;32;20687;-67
2021/01/20 08:32:53;;;;;;;6.73;4.70;;;8.50;90.70;;;;;;4394542;32;20168;-68
2021/01/20 08:35:26;;;;;;;6.23;4.73;;;8.50;90.60;;;;;;4397857;32;20203;-67
2021/01/20 08:37:57;;;;;;;6.30;4.37;;;8.50;90.50;;;;;;4395718;32;20210;-69
2021/01/20 08:40:24;;;;;;;8.23;5.00;;;8.40;90.70;;;;;;4402841;32;20225;-67
2021/01/20 08:42:50;;;;;;;7.07;4.67;;;8.50;90.90;;;;;;4400688;32;20261;-66
2021/01/20 08:45:31;;;;;;;7.57;4.77;;;8.60;90.60;;;;;;4395624;32;20223;-68
2021/01/20 08:48:02;;;;;;;5.00;4.30;;;8.60;90.50;;;;;;4399941;32;20148;-67
2021/01/20 08:50:40;;;;;;;6.43;4.53;;;8.60;90.60;;;;;;4400505;32;20178;-67
2021/01/20 08:53:09;;;;;;;11.17;4.60;;;8.60;90.40;;;;;;4397791;32;20186;-68
2021/01/20 08:55:38;;;;;;;6.53;4.60;;;8.70;90.30;;;;;;4392306;32;20298;-67
2021/01/20 08:58:27;;;;;;;6.80;4.33;;;8.70;90.30;;;;;;4400173;32;20178;-68
2021/01/20 09:00:56;;;;;;;5.83;3.90;;;8.70;90.10;;;;;;4396271;32;20229;-68
2021/01/20 09:03:23;;;;;;;5.13;3.70;;;8.70;89.70;;;;;;4397638;32;20257;-67
2021/01/20 09:06:00;;;;;;;4.53;3.53;;;8.70;89.60;;;;;;4392703;32;20236;-67
2021/01/20 09:08:35;;;;;;;6.97;3.73;;;8.70;89.50;;;;;;4375639;32;20205;-68
2021/01/20 09:11:02;;;;;;;5.33;3.63;;;8.80;89.20;;;;;;4400086;32;20191;-65
2021/01/20 09:13:28;;;;;;;6.53;3.67;;;8.80;88.90;;;;;;4400418;32;20234;-68
2021/01/20 09:15:56;;;;;;;6.03;3.77;;;8.80;88.20;;;;;;4395767;32;20659;-66
2021/01/20 09:18:23;;;;;;;5.17;3.53;;;8.80;88.20;;;;;;4399909;32;20234;-68
2021/01/20 09:20:50;;;;;;;5.90;3.90;;;8.80;88.20;;;;;;4401641;32;20182;-67
2021/01/20 09:23:17;;;;;;;4.47;3.10;;;8.90;87.40;;;;;;4400233;32;20191;-67
2021/01/20 09:25:54;;;;;;;6.70;3.33;;;8.80;87.50;;;;;;4393834;32;20187;-68
2021/01/20 09:28:20;;;;;;;5.17;3.10;;;8.80;87.40;;;;;;4386922;32;20298;-68
2021/01/20 09:30:48;;;;;;;4.33;3.13;;;8.90;87.00;;;;;;4391940;32;20668;-65
2021/01/20 09:33:14;;;;;;;4.33;3.17;;;8.90;86.50;;;;;;4393864;32;20183;-65
2021/01/20 09:35:41;;;;;;;4.53;3.00;;;9.00;85.90;;;;;;4390026;32;21496;-65
2021/01/20 09:38:18;;;;;;;5.23;3.00;;;9.00;85.60;;;;;;4389847;32;20565;-66
2021/01/20 09:40:45;;;;;;;4.23;3.00;;;9.10;84.40;;;;;;4392958;32;20180;-66
2021/01/20 09:43:12;;;;;;;6.23;3.00;;;9.20;84.90;;;;;;4391909;32;20219;-69
2021/01/20 09:45:38;;;;;;;7.63;2.77;;;9.10;84.80;;;;;;4395211;32;20197;-65
2021/01/20 09:48:06;;;;;;;4.77;2.70;;;9.20;84.00;;;;;;4397712;32;20172;-67
2021/01/20 09:50:34;;;;;;;3.53;2.30;;;9.20;84.20;;;;;;4395037;32;20759;-67
2021/01/20 09:53:01;;;;;;;5.00;2.97;;;9.20;83.90;;;;;;4390664;32;20200;-66
2021/01/20 09:55:28;;;;;;;4.67;2.50;;;9.30;84.20;;;;;;4392900;32;20494;-67
2021/01/20 09:57:56;;;;;;;4.47;3.00;;;9.30;84.00;;;;;;4395220;32;20165;-66
2021/01/20 10:00:23;;;;;;;5.37;2.83;;;9.30;82.70;;;;;;4394927;32;20277;-67
2021/01/20 10:02:49;;;;;;;4.43;2.87;;;9.40;82.60;;;;;;4391126;32;20177;-65
2021/01/20 10:05:18;;;;;;;4.80;2.73;;;9.40;81.10;;;;;;4393345;32;20311;-66
2021/01/20 10:07:45;;;;;;;7.13;2.63;;;9.50;81.30;;;;;;4393981;32;20578;-66
2021/01/20 10:10:13;;;;;;;6.90;2.80;;;9.60;81.00;;;;;;4395810;32;20228;-66
2021/01/20 10:12:39;;;;;;;5.10;2.97;;;9.60;81.10;;;;;;4398634;32;20173;-66
2021/01/20 10:15:09;;;;;;;3.97;2.57;;;9.70;79.90;;;;;;4395188;32;20301;-68
2021/01/20 10:17:35;;;;;;;5.03;2.73;;;9.80;79.60;;;;;;4397386;32;20165;-67
2021/01/20 10:20:02;;;;;;;4.10;2.60;;;9.80;79.60;;;;;;4396448;32;20193;-67
2021/01/20 10:22:28;;;;;;;4.00;2.40;;;9.90;80.00;;;;;;4396359;32;20210;-65
2021/01/20 10:24:55;;;;;;;3.50;2.40;;;9.90;79.20;;;;;;4395883;32;20181;-65
2021/01/20 10:27:21;;;;;;;5.60;2.43;;;9.90;79.90;;;;;;4395112;32;20251;-68
2021/01/20 10:29:49;;;;;;;3.63;2.50;;;9.90;79.60;;;;;;4395219;32;20185;-66
2021/01/20 10:32:16;;;;;;;4.90;2.40;;;10.00;79.80;;;;;;4395023;32;20157;-68
2021/01/20 10:34:42;;;;;;;3.13;2.37;;;10.00;79.00;;;;;;4398548;32;20188;-69
2021/01/20 10:37:09;;;;;;;4.70;2.60;;;10.00;78.40;;;;;;4391680;32;20167;-66
2021/01/20 10:39:35;;;;;;;4.13;2.80;;;10.00;77.70;;;;;;4393973;32;20158;-69
2021/01/20 10:42:02;;;;;;;4.20;2.63;;;10.00;78.30;;;;;;4395102;32;20200;-66
2021/01/20 10:44:28;;;;;;;3.43;2.60;;;9.90;77.60;;;;;;4393129;32;20164;-66
2021/01/20 10:46:54;;;;;;;3.70;2.70;;;9.90;77.80;;;;;;4392146;32;20562;-67
2021/01/20 10:49:22;;;;;;;2.70;2.40;;;9.90;77.30;;;;;;4396354;32;20205;-69
2021/01/20 10:51:49;;;;;;;4.00;2.50;;;9.80;78.10;;;;;;4395308;32;20161;-66
2021/01/20 10:54:19;;;;;;;4.77;2.60;;;9.80;76.50;;;;;;4391799;32;20235;-67
2021/01/20 10:56:45;;;;;;;4.83;2.70;;;9.80;76.70;;;;;;4395226;32;20542;-67
2021/01/20 10:59:12;;;;;;;5.47;2.17;;;9.80;76.40;;;;;;4395229;32;20234;-67
2021/01/20 11:01:38;;;;;;;3.77;2.30;;;9.80;76.00;;;;;;4395632;32;20291;-67
2021/01/20 11:04:05;;;;;;;5.07;2.33;;;9.90;75.60;;;;;;4398025;32;20496;-67
2021/01/20 11:06:32;;;;;;;3.30;2.30;;;10.00;75.30;;;;;;4398751;32;20269;-66
2021/01/20 11:08:59;;;;;;;5.47;2.60;;;10.00;74.60;;;;;;4399154;32;20163;-68
2021/01/20 11:11:26;;;;;;;4.80;2.60;;;10.10;74.70;;;;;;4401712;32;20163;-67
2021/01/20 11:13:52;;;;;;;4.03;2.67;;;10.20;74.00;;;;;;4399224;32;20672;-67
2021/01/20 11:16:19;;;;;;;2.80;2.00;;;10.30;73.70;;;;;;4400864;32;20183;-67
2021/01/20 11:18:45;;;;;;;3.87;2.40;;;10.30;73.80;;;;;;4401675;32;20203;-66
2021/01/20 11:21:14;;;;;;;6.00;2.57;;;10.10;73.80;;;;;;4400947;32;20223;-67
2021/01/20 11:23:42;;;;;;;6.20;2.67;;;9.90;74.70;;;;;;4402012;32;20186;-66
2021/01/20 11:26:09;;;;;;;4.30;2.90;;;9.80;74.00;;;;;;4399991;32;20162;-66
2021/01/20 11:28:36;;;;;;;4.77;2.63;;;9.70;73.80;;;;;;4392609;32;20604;-65
2021/01/20 11:31:03;;;;;;;4.13;2.67;;;9.70;75.00;;;;;;4395607;32;20151;-66
2021/01/20 11:33:31;;;;;;;4.93;2.80;;;9.80;73.10;;;;;;4393653;32;21581;-66
2021/01/20 11:38:57;;;;;;;4.33;2.20;;;10.10;71.70;;;;;;4394826;32;20188;-66
2021/01/20 11:41:53;;;;;;;6.60;2.80;;;10.30;70.90;;;;;;4397124;32;20160;-68
2021/01/20 11:44:22;;;;;;;2.80;2.20;;;10.30;71.80;;;;;;4396611;32;20238;-68
2021/01/20 11:46:50;;;;;;;2.87;2.27;;;10.30;69.90;;;;;;4395704;32;20250;-67
2021/01/20 11:49:16;;;;;;;5.40;2.43;;;10.30;70.30;;;;;;4396334;32;20183;-69
2021/01/20 11:51:46;;;;;;;5.13;2.60;;;10.40;69.60;;;;;;4399440;32;20217;-67
2021/01/20 11:54:13;;;;;;;4.63;2.80;;;10.50;70.20;;;;;;4395484;32;20614;-65
2021/01/20 11:56:39;;;;;;;4.73;2.30;;;10.70;69.40;;;;;;4398312;32;20174;-67
2021/01/20 11:59:09;;;;;;;4.43;2.60;;;10.80;69.60;;;;;;4398925;32;20247;-67
2021/01/20 12:01:35;;;;;;;4.80;2.70;;;10.70;69.40;;;;;;4396643;32;20250;-68
2021/01/20 12:04:03;;;;;;;4.97;2.30;;;10.60;68.90;;;;;;4395175;32;20222;-68
2021/01/20 12:06:30;;;;;;;5.13;2.43;;;10.60;68.80;;;;;;4394626;32;20180;-66
2021/01/20 12:08:56;;;;;;;4.57;2.40;;;10.50;70.70;;;;;;4391819;32;20164;-66
2021/01/20 12:11:24;;;;;;;5.63;2.50;;;10.30;70.10;;;;;;4394890;32;20192;-68
2021/01/20 12:13:50;;;;;;;4.27;3.03;;;10.30;71.40;;;;;;4178302;32;7095121;-68
2021/01/20 12:16:17;;;;;;;3.97;2.27;;;10.20;70.40;;;;;;4394464;32;20222;-67
2021/01/20 12:18:43;;;;;;;3.43;2.30;;;10.30;71.50;;;;;;4390687;32;20183;-67
2021/01/20 12:21:09;;;;;;;3.23;2.17;;;10.20;70.40;;;;;;4391614;32;20167;-67
2021/01/20 12:23:36;;;;;;;5.37;3.03;;;10.10;71.10;;;;;;4392245;32;20173;-69
2021/01/20 12:26:02;;;;;;;4.60;2.50;;;10.00;71.10;;;;;;4393971;32;20234;-69
2021/01/20 12:28:29;;;;;;;6.47;2.43;;;10.00;71.50;;;;;;4392882;32;20166;-67
2021/01/20 12:30:56;;;;;;;5.10;2.27;;;9.90;71.70;;;;;;4393427;32;20171;-67
2021/01/20 12:33:22;;;;;;;7.03;2.73;;;9.80;72.20;;;;;;4396159;32;20207;-67
2021/01/20 12:35:49;;;;;;;5.23;2.90;;;9.80;73.10;;;;;;4398652;32;20148;-68
2021/01/20 12:38:15;;;;;;;5.93;2.50;;;9.90;72.30;;;;;;4391757;32;20144;-66
2021/01/20 12:40:42;;;;;;;4.70;2.50;;;9.90;72.30;;;;;;4396902;32;20172;-66
2021/01/20 12:43:08;;;;;;;3.70;2.13;;;10.10;72.00;;;;;;4396457;32;20588;-66
2021/01/20 12:45:35;;;;;;;4.23;2.30;;;10.30;70.30;;;;;;4396552;32;20206;-67
2021/01/20 12:48:03;;;;;;;3.30;2.03;;;10.40;71.40;;;;;;4395342;32;20152;-69
2021/01/20 12:50:29;;;;;;;3.87;2.43;;;10.40;70.90;;;;;;4394234;32;20174;-67
2021/01/20 12:52:56;;;;;;;4.87;2.30;;;10.40;70.30;;;;;;4394841;32;20222;-67
2021/01/20 12:55:40;;;;;;;3.93;2.30;;;10.40;70.60;;;;;;4393418;32;20152;-66
2021/01/20 12:58:07;;;;;;;4.30;2.10;;;10.40;70.90;;;;;;4391913;32;20269;-67
2021/01/20 13:00:37;;;;;;;5.03;2.33;;;10.50;71.20;;;;;;4394677;32;20683;-66